Terminal Aerodrome Forecast
Issued by NWS Paducah, KY

Home | Current Version | Previous Version | Text Only | Print | Product List | Glossary On
Versions: 1 2 3 4 5 6 7 8 9 10 11 12 13 14 15 16 17 18 19 20
115
FTUS43 KPAH 310011 AAA
TAFEVV
TAF AMD
KEVV 310011Z 3100/3124 23010KT P6SM SCT040 OVC080
      TEMPO 3100/3101 4SM -TSRA BKN035CB
     FM310400 25010KT P6SM BKN035
     FM310800 26007KT P6SM OVC015 PROB30 3109/3115 4SM -RA
     FM311500 29010G15KT P6SM BKN025=

USA.gov is the U.S. government's official web portal to all federal, state and local government web resources and services.